createdAt,value
2018-08-16T00:00:37.782Z,932.19
2018-08-16T00:02:09.352Z,932.20
2018-08-16T00:03:41.021Z,932.23
2018-08-16T00:05:12.490Z,932.27
2018-08-16T00:06:44.060Z,932.31
2018-08-16T00:08:15.629Z,932.34
2018-08-16T00:09:47.400Z,932.28
2018-08-16T00:11:18.776Z,932.24
2018-08-16T00:12:50.338Z,932.23
2018-08-16T00:14:21.912Z,932.20
2018-08-16T00:15:53.578Z,932.18
2018-08-16T00:17:25.050Z,932.19
2018-08-16T00:18:56.617Z,932.15
2018-08-16T00:20:28.187Z,932.17
2018-08-16T00:21:59.957Z,932.14
2018-08-16T00:23:31.328Z,932.06
2018-08-16T00:25:02.898Z,932.15
2018-08-16T00:26:34.458Z,932.24
2018-08-16T00:28:06.328Z,932.23
2018-08-16T00:29:37.598Z,932.21
2018-08-16T00:31:09.167Z,932.22
2018-08-16T00:32:40.738Z,932.15
2018-08-16T00:34:12.406Z,932.09
2018-08-16T00:35:43.875Z,932.13
2018-08-16T00:37:15.445Z,932.19
2018-08-16T00:38:47.014Z,932.18
2018-08-16T00:40:18.685Z,932.25
2018-08-16T00:41:50.153Z,932.23
2018-08-16T00:43:21.722Z,932.25
2018-08-16T00:44:53.292Z,932.15
2018-08-16T00:46:25.363Z,932.11
2018-08-16T00:47:56.431Z,932.12
2018-08-16T00:49:28.001Z,932.13
2018-08-16T00:50:59.574Z,932.13
2018-08-16T00:52:31.341Z,932.15
2018-08-16T00:54:02.709Z,932.15
2018-08-16T00:55:34.279Z,932.14
2018-08-16T00:57:05.849Z,932.15
2018-08-16T00:58:37.624Z,932.15
2018-08-16T01:00:08.988Z,932.16
2018-08-16T01:01:40.558Z,932.12
2018-08-16T01:03:12.128Z,932.16
2018-08-16T01:04:43.947Z,932.17
2018-08-16T01:06:15.266Z,932.20
2018-08-16T01:07:46.836Z,932.17
2018-08-16T01:09:18.405Z,932.20
2018-08-16T01:10:50.224Z,932.25
2018-08-16T01:12:21.544Z,932.24
2018-08-16T01:13:53.116Z,932.25
2018-08-16T01:15:24.686Z,932.31
2018-08-16T01:16:56.353Z,932.31
2018-08-16T01:18:27.822Z,932.29
2018-08-16T01:19:59.393Z,932.27
2018-08-16T01:21:30.961Z,932.27
2018-08-16T01:23:02.730Z,932.34
2018-08-16T01:24:34.112Z,932.27
2018-08-16T01:26:05.670Z,932.27
2018-08-16T01:27:37.238Z,932.25
2018-08-16T01:29:08.908Z,932.32
2018-08-16T01:30:40.377Z,932.26
2018-08-16T01:32:11.947Z,932.29
2018-08-16T01:33:43.515Z,932.32
2018-08-16T01:35:15.185Z,932.35
2018-08-16T01:36:46.654Z,932.42
2018-08-16T01:38:18.223Z,932.34
2018-08-16T01:39:49.793Z,932.29
2018-08-16T01:41:21.712Z,932.28
2018-08-16T01:42:52.930Z,932.27
2018-08-16T01:44:24.501Z,932.25
2018-08-16T01:45:56.070Z,932.20
2018-08-16T01:47:27.740Z,932.16
2018-08-16T01:48:59.209Z,932.13
2018-08-16T01:50:30.778Z,932.17
2018-08-16T01:52:02.347Z,932.21
2018-08-16T01:53:34.016Z,932.21
2018-08-16T01:55:05.487Z,932.18
2018-08-16T01:56:37.059Z,932.17
2018-08-16T01:58:08.627Z,932.18
2018-08-16T01:59:40.446Z,932.20
2018-08-16T02:01:11.765Z,932.20
2018-08-16T02:02:43.336Z,932.22
2018-08-16T02:04:14.905Z,932.25
2018-08-16T02:05:46.573Z,932.25
2018-08-16T02:07:18.043Z,932.28
2018-08-16T02:08:49.615Z,932.25
2018-08-16T02:10:21.183Z,932.24
2018-08-16T02:11:53.004Z,932.27
2018-08-16T02:13:24.326Z,932.25
2018-08-16T02:14:55.890Z,932.32
2018-08-16T02:16:27.460Z,932.35
2018-08-16T02:17:59.230Z,932.36
2018-08-16T02:19:30.599Z,932.34
2018-08-16T02:21:02.172Z,932.33
2018-08-16T02:22:33.738Z,932.38
2018-08-16T02:24:05.408Z,932.38
2018-08-16T02:25:36.877Z,932.32
2018-08-16T02:27:08.448Z,932.30
2018-08-16T02:28:40.017Z,932.30
2018-08-16T02:30:11.685Z,932.23
2018-08-16T02:31:43.154Z,932.24
2018-08-16T02:33:14.724Z,932.15
2018-08-16T02:34:46.294Z,932.13
2018-08-16T02:36:18.114Z,932.13
2018-08-16T02:37:49.434Z,932.14
2018-08-16T02:39:21.003Z,932.11
2018-08-16T02:40:52.574Z,932.15
2018-08-16T02:42:24.240Z,932.09
2018-08-16T02:43:55.711Z,932.07
2018-08-16T02:45:27.281Z,932.07
2018-08-16T02:46:58.850Z,932.06
2018-08-16T02:48:30.521Z,932.03
2018-08-16T02:50:01.995Z,932.02
2018-08-16T02:51:33.557Z,931.95
2018-08-16T02:53:05.129Z,931.96
2018-08-16T02:54:36.951Z,931.98
2018-08-16T02:56:08.268Z,932.08
2018-08-16T02:57:39.836Z,932.11
2018-08-16T02:59:11.406Z,932.09
2018-08-16T03:00:43.078Z,932.12
2018-08-16T03:02:14.543Z,932.08
2018-08-16T03:03:46.115Z,932.17
2018-08-16T03:05:17.684Z,932.10
2018-08-16T03:06:49.377Z,932.08
2018-08-16T03:08:20.821Z,932.06
2018-08-16T03:09:52.396Z,932.00
2018-08-16T03:11:23.960Z,931.95
2018-08-16T03:12:55.881Z,931.92
2018-08-16T03:14:27.099Z,931.95
2018-08-16T03:15:58.669Z,931.94
2018-08-16T03:17:30.239Z,931.98
2018-08-16T03:19:01.907Z,931.91
2018-08-16T03:20:33.377Z,932.00
2018-08-16T03:22:04.945Z,932.03
2018-08-16T03:23:36.516Z,932.04
2018-08-16T03:25:08.084Z,932.03
2018-08-16T03:26:39.654Z,932.02
2018-08-16T03:28:11.224Z,932.02
2018-08-16T03:29:42.807Z,931.99
2018-08-16T03:31:14.512Z,931.94
2018-08-16T03:32:45.931Z,931.90
2018-08-16T03:34:17.500Z,931.86
2018-08-16T03:35:49.071Z,931.81
2018-08-16T03:37:20.739Z,931.70
2018-08-16T03:38:52.208Z,931.66
2018-08-16T03:40:23.777Z,931.65
2018-08-16T03:41:55.347Z,931.70
2018-08-16T03:43:27.215Z,931.69
2018-08-16T03:44:58.486Z,931.74
2018-08-16T03:46:30.055Z,931.81
2018-08-16T03:48:01.629Z,931.84
2018-08-16T03:49:33.450Z,931.84
2018-08-16T03:51:04.763Z,931.85
2018-08-16T03:52:36.333Z,931.82
2018-08-16T03:54:07.903Z,931.73
2018-08-16T03:55:39.574Z,931.71
2018-08-16T03:57:11.041Z,931.73
2018-08-16T03:58:42.611Z,931.75
2018-08-16T04:00:14.179Z,931.81
2018-08-16T04:01:45.749Z,931.71
2018-08-16T04:03:17.319Z,931.60
2018-08-16T04:04:48.891Z,931.54
2018-08-16T04:06:20.460Z,931.55
2018-08-16T04:07:52.277Z,931.57
2018-08-16T04:09:23.596Z,931.68
2018-08-16T04:10:55.166Z,931.73
2018-08-16T04:12:26.735Z,931.71
2018-08-16T04:13:58.555Z,931.71
2018-08-16T04:15:29.874Z,931.60
2018-08-16T04:17:01.449Z,931.54
2018-08-16T04:18:33.014Z,931.48
2018-08-16T04:20:04.683Z,931.42
2018-08-16T04:21:36.153Z,931.41
2018-08-16T04:23:07.721Z,931.42
2018-08-16T04:24:39.290Z,931.43
2018-08-16T04:26:11.060Z,931.47
2018-08-16T04:27:42.430Z,931.56
2018-08-16T04:29:14.046Z,931.60
2018-08-16T04:30:45.572Z,931.61
2018-08-16T04:32:17.238Z,931.60
2018-08-16T04:33:48.707Z,931.56
2018-08-16T04:35:20.284Z,931.56
2018-08-16T04:36:51.845Z,931.58
2018-08-16T04:38:23.520Z,931.62
2018-08-16T04:39:54.986Z,931.58
2018-08-16T04:41:26.578Z,931.55
2018-08-16T04:42:58.123Z,931.57
2018-08-16T04:44:30.098Z,931.61
2018-08-16T04:46:01.266Z,931.65
2018-08-16T04:47:32.831Z,931.66
2018-08-16T04:49:04.406Z,931.70
2018-08-16T04:50:35.971Z,931.65
2018-08-16T04:52:07.540Z,931.55
2018-08-16T04:53:39.109Z,931.43
2018-08-16T04:55:10.682Z,931.41
2018-08-16T04:56:42.350Z,931.41
2018-08-16T04:58:13.818Z,931.49
2018-08-16T04:59:45.389Z,931.53
2018-08-16T05:01:16.959Z,931.48
2018-08-16T05:02:48.878Z,931.42
2018-08-16T05:04:20.099Z,931.44
2018-08-16T05:05:51.666Z,931.36
2018-08-16T05:07:23.263Z,931.31
2018-08-16T05:08:54.905Z,931.30
2018-08-16T05:10:26.376Z,931.39
2018-08-16T05:11:57.945Z,931.41
2018-08-16T05:13:29.514Z,931.45
2018-08-16T05:15:01.084Z,931.42
2018-08-16T05:16:32.660Z,931.49
2018-08-16T05:18:04.222Z,931.44
2018-08-16T05:19:35.791Z,931.44
2018-08-16T05:21:07.512Z,931.37
2018-08-16T05:22:38.930Z,931.36
2018-08-16T05:24:10.499Z,931.30
2018-08-16T05:25:42.068Z,931.32
2018-08-16T05:27:13.639Z,931.38
2018-08-16T05:28:45.207Z,931.43
2018-08-16T05:30:16.778Z,931.51
2018-08-16T05:31:48.378Z,931.51
2018-08-16T05:33:19.918Z,931.50
2018-08-16T05:34:51.484Z,931.53
2018-08-16T05:36:23.058Z,931.57
2018-08-16T05:37:54.624Z,931.59
2018-08-16T05:39:26.444Z,931.62
2018-08-16T05:40:57.763Z,931.62
2018-08-16T05:42:29.333Z,931.55
2018-08-16T05:44:00.902Z,931.63
2018-08-16T05:45:32.573Z,931.64
2018-08-16T05:47:04.041Z,931.63
2018-08-16T05:48:35.615Z,931.55
2018-08-16T05:50:07.183Z,931.52
2018-08-16T05:51:38.750Z,931.44
2018-08-16T05:53:10.326Z,931.45
2018-08-16T05:54:41.888Z,931.44
2018-08-16T05:56:13.459Z,931.40
2018-08-16T05:57:45.229Z,931.38
2018-08-16T05:59:16.657Z,931.40
2018-08-16T06:00:48.168Z,931.47
2018-08-16T06:02:19.736Z,931.52
2018-08-16T06:03:51.307Z,931.48
2018-08-16T06:05:22.876Z,931.52
2018-08-16T06:06:54.446Z,931.49
2018-08-16T06:08:26.015Z,931.45
2018-08-16T06:09:57.584Z,931.47
2018-08-16T06:11:29.154Z,931.49
2018-08-16T06:13:00.753Z,931.51
2018-08-16T06:14:32.293Z,931.44
2018-08-16T06:16:04.263Z,931.41
2018-08-16T06:17:35.434Z,931.41
2018-08-16T06:19:07.002Z,931.36
2018-08-16T06:20:38.570Z,931.32
2018-08-16T06:22:10.139Z,931.28
2018-08-16T06:23:41.709Z,931.27
2018-08-16T06:25:13.278Z,931.26
2018-08-16T06:26:44.849Z,931.28
2018-08-16T06:28:16.517Z,931.31
2018-08-16T06:29:47.986Z,931.29
2018-08-16T06:31:19.557Z,931.31
2018-08-16T06:32:51.130Z,931.24
2018-08-16T06:34:22.948Z,931.21
2018-08-16T06:35:54.264Z,931.21
2018-08-16T06:37:25.835Z,931.18
2018-08-16T06:38:57.457Z,931.22
2018-08-16T06:40:28.977Z,931.24
2018-08-16T06:42:00.542Z,931.32
2018-08-16T06:43:32.111Z,931.38
2018-08-16T06:45:03.681Z,931.41
2018-08-16T06:46:35.500Z,931.41
2018-08-16T06:48:06.821Z,931.29
2018-08-16T06:49:38.388Z,931.29
2018-08-16T06:51:09.958Z,931.29
2018-08-16T06:52:41.792Z,931.29
2018-08-16T06:54:13.096Z,931.34
2018-08-16T06:55:44.665Z,931.33
2018-08-16T06:57:16.235Z,931.29
2018-08-16T06:58:47.804Z,931.30
2018-08-16T07:00:19.377Z,931.38
2018-08-16T07:01:50.943Z,931.38
2018-08-16T07:03:22.513Z,931.37
2018-08-16T07:04:54.310Z,931.33
2018-08-16T07:06:25.652Z,931.35
2018-08-16T07:07:57.222Z,931.31
2018-08-16T07:09:28.791Z,931.26
2018-08-16T07:11:00.511Z,931.27
2018-08-16T07:12:32.001Z,931.38
2018-08-16T07:14:03.500Z,931.40
2018-08-16T07:15:35.071Z,931.43
2018-08-16T07:17:06.890Z,931.41
2018-08-16T07:18:38.239Z,931.41
2018-08-16T07:20:09.777Z,931.44
2018-08-16T07:21:41.347Z,931.48
2018-08-16T07:23:13.017Z,931.46
2018-08-16T07:24:44.555Z,931.50
2018-08-16T07:26:16.055Z,931.49
2018-08-16T07:27:47.624Z,931.43
2018-08-16T07:29:19.345Z,931.41
2018-08-16T07:30:50.765Z,931.46
2018-08-16T07:32:22.333Z,931.41
2018-08-16T07:33:53.903Z,931.37
2018-08-16T07:35:25.473Z,931.39
2018-08-16T07:36:57.043Z,931.39
2018-08-16T07:38:28.613Z,931.42
2018-08-16T07:40:00.181Z,931.45
2018-08-16T07:41:31.849Z,931.47
2018-08-16T07:43:03.319Z,931.48
2018-08-16T07:44:34.888Z,931.50
2018-08-16T07:46:06.574Z,931.54
2018-08-16T07:47:38.577Z,931.58
2018-08-16T07:49:09.596Z,931.57
2018-08-16T07:50:41.166Z,931.58
2018-08-16T07:52:12.735Z,931.60
2018-08-16T07:53:44.314Z,931.56
2018-08-16T07:55:15.873Z,931.55
2018-08-16T07:56:47.442Z,931.50
2018-08-16T07:58:19.021Z,931.50
2018-08-16T07:59:50.582Z,931.53
2018-08-16T08:01:22.151Z,931.54
2018-08-16T08:02:53.721Z,931.48
2018-08-16T08:04:25.294Z,931.54
2018-08-16T08:05:57.010Z,931.53
2018-08-16T08:07:28.429Z,931.57
2018-08-16T08:09:00.061Z,931.57
2018-08-16T08:10:31.568Z,931.58
2018-08-16T08:12:03.143Z,931.56
2018-08-16T08:13:34.707Z,931.54
2018-08-16T08:15:06.278Z,931.61
2018-08-16T08:16:37.846Z,931.61
2018-08-16T08:18:09.420Z,931.68
2018-08-16T08:19:40.985Z,931.66
2018-08-16T08:21:12.555Z,931.65
2018-08-16T08:22:44.124Z,931.69
2018-08-16T08:24:15.860Z,931.73
2018-08-16T08:25:47.268Z,931.72
2018-08-16T08:27:18.833Z,931.78
2018-08-16T08:28:50.403Z,931.73
2018-08-16T08:30:21.971Z,931.71
2018-08-16T08:31:53.544Z,931.67
2018-08-16T08:33:25.111Z,931.71
2018-08-16T08:34:56.680Z,931.69
2018-08-16T08:36:28.251Z,931.62
2018-08-16T08:37:59.820Z,931.60
2018-08-16T08:39:31.390Z,931.64
2018-08-16T08:41:02.958Z,931.62
2018-08-16T08:42:34.678Z,931.64
2018-08-16T08:44:06.097Z,931.61
2018-08-16T08:45:37.668Z,931.63
2018-08-16T08:47:09.242Z,931.67
2018-08-16T08:48:41.056Z,931.65
2018-08-16T08:50:12.424Z,931.68
2018-08-16T08:51:43.944Z,931.75
2018-08-16T08:53:15.513Z,931.75
2018-08-16T08:54:47.085Z,931.74
2018-08-16T08:56:18.652Z,931.74
2018-08-16T08:57:50.221Z,931.80
2018-08-16T08:59:21.859Z,931.86
2018-08-16T09:00:53.515Z,931.86
2018-08-16T09:02:24.929Z,931.86
2018-08-16T09:03:56.500Z,931.90
2018-08-16T09:05:28.070Z,931.89
2018-08-16T09:06:59.716Z,931.88
2018-08-16T09:08:31.205Z,931.96
2018-08-16T09:10:02.776Z,931.95
2018-08-16T09:11:34.348Z,931.99
2018-08-16T09:13:05.913Z,932.01
2018-08-16T09:14:37.482Z,932.07
2018-08-16T09:16:09.051Z,932.12
2018-08-16T09:17:40.621Z,932.16
2018-08-16T09:19:12.540Z,932.18
2018-08-16T09:20:43.759Z,932.19
2018-08-16T09:22:15.328Z,932.26
2018-08-16T09:23:46.900Z,932.35
2018-08-16T09:25:18.600Z,932.36
2018-08-16T09:26:50.035Z,932.34
2018-08-16T09:28:21.605Z,932.30
2018-08-16T09:29:53.205Z,932.35
2018-08-16T09:31:24.805Z,932.40
2018-08-16T09:32:56.313Z,932.46
2018-08-16T09:34:28.006Z,932.43
2018-08-16T09:35:59.452Z,932.47
2018-08-16T09:37:31.174Z,932.47
2018-08-16T09:39:02.591Z,932.41
2018-08-16T09:40:34.162Z,932.49
2018-08-16T09:42:05.766Z,932.46
2018-08-16T09:43:37.298Z,932.49
2018-08-16T09:45:09.097Z,932.54
2018-08-16T09:46:41.238Z,932.54
2018-08-16T09:48:12.576Z,932.52
2018-08-16T09:49:43.876Z,932.52
2018-08-16T09:51:15.238Z,932.52
2018-08-16T09:52:46.715Z,932.53
2018-08-16T09:54:18.302Z,932.56
2018-08-16T09:55:50.076Z,932.55
2018-08-16T09:57:21.440Z,932.56
2018-08-16T09:58:53.314Z,932.53
2018-08-16T10:00:24.598Z,932.56
2018-08-16T10:01:56.135Z,932.64
2018-08-16T10:03:27.764Z,932.67
2018-08-16T10:04:59.297Z,932.71
2018-08-16T10:06:30.844Z,932.67
2018-08-16T10:08:02.452Z,932.71
2018-08-16T10:09:34.024Z,932.71
2018-08-16T10:11:05.553Z,932.73
2018-08-16T10:14:09.147Z,932.79
2018-08-16T10:15:40.263Z,932.76
2018-08-16T10:17:11.862Z,932.79
2018-08-16T10:18:43.496Z,932.82
2018-08-16T10:21:47.101Z,932.84
2018-08-16T10:23:18.112Z,932.89
2018-08-16T10:24:49.811Z,932.88
2018-08-16T10:26:21.494Z,932.95
2018-08-16T10:27:53.533Z,932.97
2018-08-16T10:29:24.694Z,933.03
2018-08-16T10:30:55.965Z,933.02
2018-08-16T10:32:27.641Z,932.96
2018-08-16T10:35:31.424Z,933.07
2018-08-16T10:37:02.447Z,933.11
2018-08-16T10:38:34.037Z,933.09
2018-08-16T10:40:05.676Z,933.09
2018-08-16T10:41:37.340Z,933.10
2018-08-16T10:43:08.936Z,933.11
2018-08-16T10:44:40.107Z,933.11
2018-08-16T10:46:11.731Z,933.13
2018-08-16T10:47:43.795Z,933.18
2018-08-16T10:50:47.070Z,933.27
2018-08-16T10:52:18.079Z,933.35
2018-08-16T10:53:51.190Z,933.42
2018-08-16T10:56:53.085Z,933.44
2018-08-16T10:58:24.300Z,933.47
2018-08-16T10:59:55.966Z,933.47
2018-08-16T11:02:59.089Z,933.47
2018-08-16T11:04:30.691Z,933.51
2018-08-16T11:06:02.206Z,933.57
2018-08-16T11:07:34.063Z,933.59
2018-08-16T11:09:06.462Z,933.69
2018-08-16T11:10:36.864Z,933.71
2018-08-16T11:12:08.663Z,933.77
2018-08-16T11:13:40.682Z,933.74
2018-08-16T11:15:12.658Z,933.77
2018-08-16T11:16:43.436Z,933.84
2018-08-16T11:18:15.216Z,933.77
2018-08-16T11:19:46.804Z,933.78
2018-08-16T11:21:18.235Z,933.81
2018-08-16T11:24:21.037Z,933.87
2018-08-16T11:25:52.550Z,933.90
2018-08-16T11:27:24.122Z,933.92
2018-08-16T11:28:55.959Z,933.95
2018-08-16T11:30:27.596Z,934.07
2018-08-16T11:31:59.079Z,934.11
2018-08-16T11:33:31.412Z,934.08
2018-08-16T11:35:03.070Z,934.00
2018-08-16T11:36:34.798Z,934.07
2018-08-16T11:38:06.180Z,934.08
2018-08-16T11:39:38.675Z,934.16
2018-08-16T11:41:09.413Z,934.16
2018-08-16T11:42:40.821Z,934.08
2018-08-16T11:44:12.213Z,934.16
2018-08-16T11:45:44.724Z,934.09
2018-08-16T11:47:14.917Z,934.14
2018-08-16T11:48:47.269Z,934.10
2018-08-16T11:50:18.352Z,934.08
2018-08-16T11:51:49.884Z,934.07
2018-08-16T11:53:22.198Z,933.99
2018-08-16T11:54:54.343Z,933.93
2018-08-16T11:56:24.682Z,933.95
2018-08-16T11:57:58.900Z,933.99
2018-08-16T11:59:29.895Z,934.18
2018-08-16T12:01:00.757Z,934.11
2018-08-16T12:02:33.318Z,934.10
2018-08-16T12:04:03.457Z,934.16
2018-08-16T12:05:35.237Z,934.20
2018-08-16T12:07:06.267Z,934.12
2018-08-16T12:08:37.684Z,934.05
2018-08-16T12:10:09.703Z,934.03
2018-08-16T12:11:40.688Z,934.15
2018-08-16T12:13:12.348Z,934.22
2018-08-16T12:14:44.077Z,934.14
2018-08-16T12:16:15.072Z,934.09
2018-08-16T12:17:48.037Z,934.10
2018-08-16T12:19:18.570Z,934.11
2018-08-16T12:20:50.516Z,934.00
2018-08-16T12:22:21.774Z,934.02
2018-08-16T12:23:54.050Z,933.95
2018-08-16T12:25:24.704Z,933.90
2018-08-16T12:26:56.222Z,933.70
2018-08-16T12:28:28.480Z,933.64
2018-08-16T12:30:00.041Z,933.29
2018-08-16T12:31:31.073Z,933.04
2018-08-16T12:33:02.736Z,933.01
2018-08-16T12:34:34.444Z,932.98
2018-08-16T12:36:05.413Z,933.10
2018-08-16T12:37:37.242Z,933.34
2018-08-16T12:39:08.854Z,933.68
2018-08-16T12:40:40.385Z,933.94
2018-08-16T12:42:13.000Z,933.95
2018-08-16T12:43:44.463Z,933.97
2018-08-16T12:45:15.238Z,933.93
2018-08-16T12:46:47.798Z,933.87
2018-08-16T12:48:19.380Z,933.94
2018-08-16T12:49:50.862Z,934.11
2018-08-16T12:51:21.966Z,934.17
2018-08-16T12:52:53.367Z,934.37
2018-08-16T12:54:25.109Z,934.38
2018-08-16T12:55:56.784Z,934.33
2018-08-16T12:57:28.295Z,934.29
2018-08-16T12:58:59.900Z,934.27
2018-08-16T13:00:32.415Z,934.30
2018-08-16T13:02:02.866Z,934.38
2018-08-16T13:03:35.060Z,934.40
2018-08-16T13:05:06.257Z,934.49
2018-08-16T13:06:38.146Z,934.47
2018-08-16T13:08:09.308Z,934.64
2018-08-16T13:09:40.738Z,934.55
2018-08-16T13:11:12.869Z,934.36
2018-08-16T13:12:44.045Z,934.36
2018-08-16T13:14:14.546Z,934.71
2018-08-16T13:15:46.539Z,934.63
2018-08-16T13:17:18.200Z,934.63
2018-08-16T13:18:50.110Z,934.57
2018-08-16T13:20:21.572Z,934.52
2018-08-16T13:21:53.568Z,934.64
2018-08-16T13:23:24.554Z,934.45
2018-08-16T13:24:56.975Z,934.53
2018-08-16T13:26:28.425Z,934.52
2018-08-16T13:27:59.392Z,934.42
2018-08-16T13:29:31.770Z,934.36
2018-08-16T13:31:03.201Z,934.44
2018-08-16T13:32:34.297Z,934.52
2018-08-16T13:34:05.839Z,934.60
2018-08-16T13:35:37.843Z,934.58
2018-08-16T13:37:09.217Z,934.65
2018-08-16T13:38:41.332Z,934.65
2018-08-16T13:40:12.435Z,934.52
2018-08-16T13:41:44.256Z,934.48
2018-08-16T13:43:15.624Z,934.32
2018-08-16T13:44:46.820Z,934.31
2018-08-16T13:47:50.077Z,934.31
2018-08-16T13:49:22.524Z,934.22
2018-08-16T13:50:54.123Z,934.23
2018-08-16T13:52:26.074Z,934.35
2018-08-16T13:53:56.367Z,934.65
2018-08-16T13:55:28.913Z,934.52
2018-08-16T13:57:00.343Z,934.43
2018-08-16T14:00:01.917Z,934.44
2018-08-16T14:01:33.835Z,934.53
2018-08-16T14:03:05.775Z,934.51
2018-08-16T14:04:37.563Z,934.52
2018-08-16T14:06:08.991Z,934.66
2018-08-16T14:07:40.891Z,934.70
2018-08-16T14:09:12.626Z,934.62
2018-08-16T14:10:43.774Z,934.60
2018-08-16T14:12:15.940Z,934.54
2018-08-16T14:13:47.106Z,934.44
2018-08-16T14:15:18.977Z,934.47
2018-08-16T14:16:49.682Z,934.47
2018-08-16T14:18:21.511Z,934.46
2018-08-16T14:19:53.023Z,934.51
2018-08-16T14:21:24.843Z,934.35
2018-08-16T14:22:56.558Z,934.43
2018-08-16T14:24:27.533Z,934.39
2018-08-16T14:25:59.658Z,934.36
2018-08-16T14:27:31.598Z,934.39
2018-08-16T14:29:02.562Z,934.51
2018-08-16T14:30:34.313Z,934.42
2018-08-16T14:32:05.391Z,934.42
2018-08-16T14:33:37.273Z,934.61
2018-08-16T14:35:08.781Z,934.44
2018-08-16T14:36:40.056Z,934.37
2018-08-16T14:38:13.228Z,934.33
2018-08-16T14:39:43.555Z,934.36
2018-08-16T14:41:15.241Z,934.31
2018-08-16T14:42:46.739Z,934.42
2018-08-16T14:44:18.115Z,934.36
2018-08-16T14:45:50.740Z,934.36
2018-08-16T14:47:21.191Z,934.38
2018-08-16T14:48:54.137Z,934.34
2018-08-16T14:50:25.000Z,934.38
2018-08-16T14:51:56.955Z,934.31
2018-08-16T14:53:27.782Z,934.31
2018-08-16T14:54:59.536Z,934.26
2018-08-16T14:56:31.132Z,934.26
2018-08-16T14:58:02.615Z,934.29
2018-08-16T14:59:36.129Z,934.21
2018-08-16T15:01:06.084Z,934.29
2018-08-16T15:02:37.264Z,934.33
2018-08-16T15:04:09.239Z,934.34
2018-08-16T15:05:40.075Z,934.40
2018-08-16T15:07:10.965Z,934.39
2018-08-16T15:08:43.405Z,934.42
2018-08-16T15:10:14.084Z,934.42
2018-08-16T15:11:45.856Z,934.44
2018-08-16T15:13:17.401Z,934.49
2018-08-16T15:14:49.266Z,934.50
2018-08-16T15:16:20.880Z,934.56
2018-08-16T15:17:52.388Z,934.46
2018-08-16T15:19:24.277Z,934.53
2018-08-16T15:20:55.651Z,934.50
2018-08-16T15:22:27.948Z,934.44
2018-08-16T15:23:58.953Z,934.48
2018-08-16T15:27:02.066Z,934.49
2018-08-16T15:28:33.217Z,934.47
2018-08-16T15:30:06.022Z,934.44
2018-08-16T15:31:37.143Z,934.37
2018-08-16T15:33:09.243Z,934.32
2018-08-16T15:34:39.781Z,934.44
2018-08-16T15:36:11.371Z,934.46
2018-08-16T15:37:42.735Z,934.38
2018-08-16T15:39:15.059Z,934.42
2018-08-16T15:40:46.522Z,934.35
2018-08-16T15:42:19.066Z,934.57
2018-08-16T15:43:49.574Z,934.61
2018-08-16T15:45:20.921Z,934.61
2018-08-16T15:46:52.344Z,934.38
2018-08-16T15:48:24.156Z,934.44
2018-08-16T15:49:56.403Z,934.37
2018-08-16T15:51:27.479Z,934.40
2018-08-16T15:52:58.910Z,934.49
2018-08-16T15:54:30.733Z,934.32
2018-08-16T15:56:02.792Z,934.17
2018-08-16T15:57:33.959Z,934.35
2018-08-16T15:59:05.111Z,934.46
2018-08-16T16:00:36.777Z,934.38
2018-08-16T16:02:08.898Z,934.42
2018-08-16T16:03:40.118Z,934.40
2018-08-16T16:05:12.007Z,934.35
2018-08-16T16:06:43.335Z,934.37
2018-08-16T16:08:15.092Z,934.34
2018-08-16T16:09:48.454Z,934.39
2018-08-16T16:11:18.081Z,934.54
2018-08-16T16:12:49.189Z,934.49
2018-08-16T16:14:21.243Z,934.59
2018-08-16T16:15:52.690Z,934.56
2018-08-16T16:17:23.753Z,934.26
2018-08-16T16:18:55.025Z,934.18
2018-08-16T16:20:26.496Z,933.99
2018-08-16T16:21:59.418Z,934.05
2018-08-16T16:25:01.833Z,934.11
2018-08-16T16:26:33.876Z,934.14
2018-08-16T16:28:05.896Z,934.10
2018-08-16T16:29:36.903Z,934.12
2018-08-16T16:31:08.953Z,934.20
2018-08-16T16:32:40.289Z,934.38
2018-08-16T16:34:12.957Z,934.34
2018-08-16T16:35:43.705Z,934.21
2018-08-16T16:37:14.570Z,934.10
2018-08-16T16:38:45.930Z,933.97
2018-08-16T16:40:18.080Z,934.01
2018-08-16T16:41:49.281Z,934.02
2018-08-16T16:43:21.068Z,933.94
2018-08-16T16:44:53.158Z,933.86
2018-08-16T16:46:24.187Z,933.86
2018-08-16T16:47:55.609Z,933.97
2018-08-16T16:49:27.544Z,934.07
2018-08-16T16:50:59.177Z,933.99
2018-08-16T16:52:31.161Z,933.95
2018-08-16T16:54:02.113Z,933.97
2018-08-16T16:55:33.504Z,933.99
2018-08-16T16:57:05.585Z,934.09
2018-08-16T16:58:38.445Z,933.96
2018-08-16T17:00:08.416Z,933.86
2018-08-16T17:01:39.826Z,933.89
2018-08-16T17:03:11.733Z,933.82
2018-08-16T17:04:43.347Z,934.00
2018-08-16T17:06:14.801Z,933.83
2018-08-16T17:07:46.529Z,933.85
2018-08-16T17:09:17.805Z,933.93
2018-08-16T17:10:49.685Z,933.81
2018-08-16T17:12:21.250Z,933.72
2018-08-16T17:13:52.739Z,933.60
2018-08-16T17:15:24.236Z,933.59
2018-08-16T17:16:56.277Z,933.60
2018-08-16T17:18:27.451Z,933.61
2018-08-16T17:19:58.943Z,933.67
2018-08-16T17:21:30.607Z,933.58
2018-08-16T17:23:02.731Z,933.56
2018-08-16T17:24:34.803Z,933.48
2018-08-16T17:26:05.416Z,933.41
2018-08-16T17:27:38.087Z,933.35
2018-08-16T17:29:09.283Z,933.25
2018-08-16T17:30:40.057Z,933.30
2018-08-16T17:32:11.826Z,933.34
2018-08-16T17:33:42.933Z,933.33
2018-08-16T17:35:14.583Z,933.40
2018-08-16T17:36:46.194Z,933.48
2018-08-16T17:38:18.424Z,933.30
2018-08-16T17:39:50.505Z,933.34
2018-08-16T17:41:21.426Z,933.27
2018-08-16T17:42:52.035Z,933.31
2018-08-16T17:44:23.721Z,933.37
2018-08-16T17:45:55.255Z,933.41
2018-08-16T17:47:27.206Z,933.54
2018-08-16T17:48:57.982Z,933.50
2018-08-16T17:50:30.548Z,933.55
2018-08-16T17:52:02.250Z,933.43
2018-08-16T17:53:36.149Z,933.47
2018-08-16T17:55:04.643Z,933.40
2018-08-16T17:56:36.306Z,933.30
2018-08-16T17:58:09.184Z,933.33
2018-08-16T17:59:41.367Z,933.40
2018-08-16T18:01:12.386Z,933.43
2018-08-16T18:02:43.209Z,933.46
2018-08-16T18:04:14.682Z,933.34
2018-08-16T18:05:46.521Z,933.42
2018-08-16T18:07:18.155Z,933.32
2018-08-16T18:08:48.900Z,933.31
2018-08-16T18:10:20.950Z,933.36
2018-08-16T18:11:51.712Z,933.34
2018-08-16T18:13:24.531Z,933.44
2018-08-16T18:14:54.646Z,933.40
2018-08-16T18:16:26.325Z,933.39
2018-08-16T18:17:58.632Z,933.39
2018-08-16T18:19:29.436Z,933.41
2018-08-16T18:21:01.408Z,933.47
2018-08-16T18:22:33.404Z,933.59
2018-08-16T18:24:04.631Z,933.57
2018-08-16T18:25:35.788Z,933.57
2018-08-16T18:27:08.420Z,933.65
2018-08-16T18:28:39.239Z,933.61
2018-08-16T18:30:11.143Z,933.56
2018-08-16T18:31:42.172Z,933.49
2018-08-16T18:33:14.145Z,933.57
2018-08-16T18:34:45.862Z,933.57
2018-08-16T18:36:17.047Z,933.48
2018-08-16T18:37:49.022Z,933.51
2018-08-16T18:39:20.639Z,933.51
2018-08-16T18:40:52.205Z,933.61
2018-08-16T18:42:23.994Z,933.65
2018-08-16T18:45:26.925Z,933.52
2018-08-16T18:46:59.021Z,933.55
2018-08-16T18:48:30.433Z,933.66
2018-08-16T18:50:01.670Z,933.51
2018-08-16T18:51:32.700Z,933.57
2018-08-16T18:53:04.778Z,933.46
2018-08-16T18:54:36.653Z,933.47
2018-08-16T18:56:09.423Z,933.54
2018-08-16T18:57:40.792Z,933.51
2018-08-16T18:59:11.120Z,933.53
2018-08-16T19:00:42.937Z,933.61
2018-08-16T19:02:14.192Z,933.63
2018-08-16T19:03:46.215Z,933.59
2018-08-16T19:05:17.125Z,933.59
2018-08-16T19:06:49.271Z,933.58
2018-08-16T19:08:20.681Z,933.62
2018-08-16T19:09:52.353Z,933.59
2018-08-16T19:11:24.079Z,933.56
2018-08-16T19:12:56.438Z,933.61
2018-08-16T19:15:57.535Z,933.72
2018-08-16T19:17:29.380Z,933.74
2018-08-16T19:19:01.049Z,933.80
2018-08-16T19:20:32.200Z,933.75
2018-08-16T19:22:03.944Z,933.77